Time;durP1;ratioP1;P1;durP2;ratioP2;P2;SDS_P1;SDS_P2;PMS_P1;PMS_P2;Temp;Humidity;BMP_temperature;BMP_pressure;BME280_temperature;BME280_humidity;BME280_pressure;Samples;Min_cycle;Max_cycle;Signal;HPM_P1;HPM_P2
2022/09/26 00:01:37;;;;;;;9.40;7.15;;;;;;;10.30;100.00;100265.69;5096548;28;20027;-62
2022/09/26 00:04:18;;;;;;;11.65;8.45;;;;;;;10.30;100.00;100265.69;5114995;28;20034;-57
2022/09/26 00:06:44;;;;;;;8.77;5.85;;;;;;;10.23;100.00;100261.81;5096633;28;20518;-57
2022/09/26 00:09:10;;;;;;;8.95;5.55;;;;;;;10.23;100.00;100261.81;5113571;28;20031;-56
2022/09/26 00:11:36;;;;;;;6.15;4.85;;;;;;;10.23;100.00;100254.59;5114678;28;20499;-57
2022/09/26 00:14:13;;;;;;;7.43;4.72;;;;;;;10.23;100.00;100259.13;5096361;28;20032;-63
2022/09/26 00:16:39;;;;;;;5.78;4.97;;;;;;;10.26;100.00;100258.91;5114394;28;20050;-62
2022/09/26 00:19:06;;;;;;;7.75;6.00;;;;;;;10.26;100.00;100253.53;5114362;28;20472;-59
2022/09/26 00:21:32;;;;;;;6.93;5.53;;;;;;;10.24;100.00;100250.09;5096312;28;20547;-62
2022/09/26 00:23:59;;;;;;;7.93;5.15;;;;;;;10.22;100.00;100241.31;5114409;28;20056;-66
2022/09/26 00:26:27;;;;;;;5.75;4.70;;;;;;;10.18;100.00;100234.47;5096064;28;20024;-66
2022/09/26 00:28:54;;;;;;;5.55;4.22;;;;;;;10.20;100.00;100227.13;5115029;28;20357;-66
2022/09/26 00:31:22;;;;;;;7.00;5.00;;;;;;;10.18;100.00;100223.72;5114137;28;20027;-66
2022/09/26 00:33:48;;;;;;;4.88;4.35;;;;;;;10.19;100.00;100220.06;5114048;28;20027;-66
2022/09/26 00:36:14;;;;;;;5.65;4.32;;;;;;;10.12;100.00;100214.38;5114318;28;20026;-66
2022/09/26 00:38:39;;;;;;;5.05;4.28;;;;;;;10.15;100.00;100210.56;5114221;28;20035;-66
2022/09/26 00:41:06;;;;;;;5.35;4.85;;;;;;;10.10;100.00;100199.38;5095724;28;20082;-67
2022/09/26 00:43:39;;;;;;;5.00;4.20;;;;;;;10.10;100.00;100199.38;5113804;28;20030;-66
2022/09/26 00:46:49;;;;;;;4.82;4.15;;;;;;;10.11;100.00;100196.56;5095564;28;20028;-68
2022/09/26 00:49:31;;;;;;;6.10;4.20;;;;;;;10.15;100.00;100197.16;5108819;28;20075;-68
2022/09/26 00:52:25;;;;;;;5.22;4.30;;;;;;;10.17;100.00;100187.09;5113796;28;20108;-67
2022/09/26 00:54:55;;;;;;;5.40;4.90;;;;;;;10.20;100.00;100194.91;5095774;28;20028;-67
2022/09/26 00:57:25;;;;;;;5.00;4.50;;;;;;;10.21;100.00;100191.25;5113746;28;20024;-68
2022/09/26 01:00:03;;;;;;;7.07;4.60;;;;;;;10.15;100.00;100179.19;5113874;28;20031;-64
2022/09/26 01:02:28;;;;;;;6.50;4.85;;;;;;;10.21;100.00;100191.25;5095515;28;20024;-64
2022/09/26 01:04:57;;;;;;;5.35;4.30;;;;;;;10.21;100.00;100191.25;5095332;28;20039;-67
2022/09/26 01:07:26;;;;;;;5.05;4.50;;;;;;;10.21;100.00;100196.63;5113966;28;20024;-72
2022/09/26 01:09:53;;;;;;;6.25;4.28;;;;;;;10.24;100.00;100191.88;5095371;28;20032;-71
2022/09/26 01:12:19;;;;;;;11.10;5.00;;;;;;;10.26;100.00;100188.19;5113671;28;20042;-70
2022/09/26 01:14:47;;;;;;;6.65;4.78;;;;;;;10.26;100.00;100191.72;5113689;28;20069;-71
2022/09/26 01:17:14;;;;;;;7.53;5.22;;;;;;;10.26;100.00;100182.81;5113303;28;20092;-74
2022/09/26 01:19:49;;;;;;;5.32;4.80;;;;;;;10.29;100.00;100199.50;5113272;28;20097;-71
2022/09/26 01:22:40;;;;;;;6.53;5.53;;;;;;;10.33;100.00;100190.19;5113649;28;20032;-72
2022/09/26 01:25:36;;;;;;;5.68;4.65;;;;;;;10.31;100.00;100192.16;5094893;28;20042;-72
2022/09/26 01:28:33;;;;;;;4.68;4.18;;;;;;;10.37;100.00;100186.25;5094938;28;20039;-71
2022/09/26 01:31:25;;;;;;;4.70;4.20;;;;;;;10.36;100.00;100189.91;5094668;28;20110;-71
2022/09/26 01:34:08;;;;;;;6.00;4.50;;;;;;;10.35;100.00;100188.22;5113047;28;20023;-70
2022/09/26 01:36:45;;;;;;;5.05;4.55;;;;;;;10.33;100.00;100183.97;5094998;28;20514;-69
2022/09/26 01:39:35;;;;;;;5.05;4.47;;;;;;;10.34;100.00;100182.97;5094838;28;20028;-71
2022/09/26 01:42:35;;;;;;;5.38;4.88;;;;;;;10.37;100.00;100180.88;5113479;28;20023;-72
2022/09/26 01:45:12;;;;;;;7.30;5.75;;;;;;;10.24;100.00;100180.22;5113071;28;20032;-72
2022/09/26 01:47:56;;;;;;;7.22;5.43;;;;;;;10.10;100.00;100173.38;5094759;28;20562;-72
2022/09/26 01:50:24;;;;;;;5.95;5.35;;;;;;;10.08;100.00;100175.34;5112853;28;20388;-72
2022/09/26 01:53:02;;;;;;;6.53;5.20;;;;;;;10.07;100.00;100167.41;5094486;28;20039;-72
2022/09/26 01:55:34;;;;;;;6.20;5.57;;;;;;;10.07;100.00;100170.09;5113101;28;20038;-72
2022/09/26 01:58:12;;;;;;;6.82;6.13;;;;;;;10.10;100.00;100167.16;5113189;28;20028;-71
2022/09/26 02:00:41;;;;;;;6.10;5.40;;;;;;;10.11;100.00;100169.72;5112743;28;20078;-70
2022/09/26 02:03:12;;;;;;;6.30;5.70;;;;;;;10.11;100.00;100171.53;5112439;28;20036;-70
2022/09/26 02:05:43;;;;;;;6.35;5.63;;;;;;;10.07;100.00;100160.19;5094348;28;20030;-71
2022/09/26 02:08:14;;;;;;;6.88;6.18;;;;;;;10.08;100.00;100161.91;5112774;28;20031;-71
2022/09/26 02:10:48;;;;;;;7.40;6.38;;;;;;;10.14;100.00;100157.84;5113227;28;20109;-69
2022/09/26 02:13:32;;;;;;;8.25;6.28;;;;;;;10.08;100.00;100150.34;5112491;28;20396;-70
2022/09/26 02:16:06;;;;;;;9.17;6.30;;;;;;;10.25;100.00;100155.09;5112912;28;20039;-71
2022/09/26 02:18:51;;;;;;;6.35;5.72;;;;;;;10.25;100.00;100149.72;5094450;28;20028;-71
2022/09/26 02:21:22;;;;;;;6.05;5.45;;;;;;;10.18;100.00;100149.38;5112345;28;20050;-71
2022/09/26 02:23:49;;;;;;;6.93;5.63;;;;;;;10.24;100.00;100142.63;5094181;28;20480;-72
2022/09/26 02:26:15;;;;;;;6.47;5.88;;;;;;;10.12;100.00;100144.53;5112345;28;20092;-72
2022/09/26 02:28:41;;;;;;;7.13;6.43;;;;;;;10.11;100.00;100144.69;5112655;28;20495;-71
2022/09/26 02:31:10;;;;;;;7.45;6.80;;;;;;;10.08;100.00;100136.91;5113029;28;20027;-71
2022/09/26 02:33:36;;;;;;;6.85;6.15;;;;;;;10.10;100.00;100145.66;5116736;28;20047;-70
2022/09/26 02:36:05;;;;;;;7.25;6.55;;;;;;;10.11;100.00;100131.25;5098362;28;20039;-70
2022/09/26 02:38:31;;;;;;;7.75;6.32;;;;;;;10.12;100.00;100125.75;5116524;28;20028;-71
2022/09/26 02:41:00;;;;;;;8.13;6.63;;;;;;;10.18;100.00;100130.56;5116508;28;20028;-72
2022/09/26 02:43:32;;;;;;;7.25;6.45;;;;;;;10.13;100.00;100119.38;5116436;28;20472;-70
2022/09/26 02:46:19;;;;;;;7.25;6.55;;;;;;;10.09;100.00;100119.81;5116653;28;20024;-72
2022/09/26 02:48:59;;;;;;;9.50;5.97;;;;;;;10.05;100.00;100111.13;5098183;28;20036;-72
2022/09/26 02:51:45;;;;;;;7.47;6.20;;;;;;;10.07;100.00;100108.31;5097611;28;20119;-71
2022/09/26 02:54:20;;;;;;;7.57;5.72;;;;;;;10.13;100.00;100114.00;5116760;28;20046;-71
2022/09/26 02:56:48;;;;;;;;;;;;;;;10.09;100.00;100107.22;5098479;28;20100;-72
2022/09/26 02:59:25;;;;;;;7.75;6.57;;;;;;;10.14;100.00;100104.13;5116449;28;19943;-71
2022/09/26 03:01:57;;;;;;;7.63;6.28;;;;;;;10.21;100.00;100099.91;5116389;28;20031;-72
2022/09/26 03:04:35;;;;;;;7.38;6.57;;;;;;;10.28;100.00;100095.72;5097922;28;20028;-69
2022/09/26 03:07:06;;;;;;;9.48;6.97;;;;;;;10.23;100.00;100092.56;5116188;28;20110;-71
2022/09/26 03:09:32;;;;;;;7.25;6.15;;;;;;;10.20;100.00;100090.13;5097691;28;20037;-70
2022/09/26 03:12:03;;;;;;;8.48;5.97;;;;;;;10.23;100.00;100079.13;5115978;28;20065;-69
2022/09/26 03:14:32;;;;;;;9.75;5.95;;;;;;;10.22;100.00;100090.88;5116298;28;20032;-71
2022/09/26 03:16:58;;;;;;;6.25;5.70;;;;;;;10.22;100.00;100080.13;5115811;28;20028;-71
2022/09/26 03:19:48;;;;;;;6.75;4.57;;;;;;;10.22;100.00;100075.59;5116012;28;20028;-72
2022/09/26 03:22:15;;;;;;;8.40;5.60;;;;;;;10.16;100.00;100081.50;5097366;28;20035;-71
2022/09/26 03:24:42;;;;;;;8.40;5.45;;;;;;;10.17;100.00;100071.59;5115630;28;20042;-71
2022/09/26 03:27:11;;;;;;;6.45;5.28;;;;;;;10.16;100.00;100075.28;5097341;28;20027;-71
2022/09/26 03:29:37;;;;;;;8.00;5.88;;;;;;;10.17;100.00;100060.84;5097596;28;20058;-71
2022/09/26 03:32:04;;;;;;;5.18;4.68;;;;;;;10.19;100.00;100066.94;5097242;28;20059;-71
2022/09/26 03:34:30;;;;;;;5.32;4.80;;;;;;;10.18;100.00;100068.78;5115631;28;20027;-71
2022/09/26 03:36:56;;;;;;;4.97;4.57;;;;;;;10.16;100.00;100065.38;5115468;28;20035;-71
2022/09/26 03:39:22;;;;;;;4.75;4.32;;;;;;;10.19;100.00;100064.25;5115438;28;20472;-72
2022/09/26 03:41:48;;;;;;;4.43;4.03;;;;;;;10.14;100.00;100063.81;5115626;28;20042;-72
2022/09/26 03:44:14;;;;;;;5.57;4.07;;;;;;;10.20;100.00;100057.91;5115188;28;20036;-72
2022/09/26 03:46:42;;;;;;;4.32;3.92;;;;;;;10.20;100.00;100055.22;5115383;28;20503;-72
2022/09/26 03:49:09;;;;;;;4.28;3.88;;;;;;;10.12;100.00;100057.75;5096776;28;20053;-70
2022/09/26 03:51:34;;;;;;;4.93;3.78;;;;;;;10.10;100.00;100057.03;5115001;28;20412;-70
2022/09/26 03:54:00;;;;;;;4.70;3.47;;;;;;;10.09;100.00;100047.28;5097236;28;20039;-72
2022/09/26 03:56:25;;;;;;;4.97;3.58;;;;;;;10.02;100.00;100056.84;5115224;28;20064;-70
2022/09/26 03:58:51;;;;;;;5.25;4.10;;;;;;;10.04;100.00;100054.88;5096746;28;20061;-72
2022/09/26 04:01:20;;;;;;;6.03;4.35;;;;;;;10.05;100.00;100052.06;5096411;28;20035;-70
2022/09/26 04:03:47;;;;;;;7.43;4.28;;;;;;;9.94;100.00;100055.72;5114827;28;20039;-71
2022/09/26 04:06:17;;;;;;;5.65;4.25;;;;;;;9.93;100.00;100048.63;5114745;28;20106;-71
2022/09/26 04:08:42;;;;;;;8.77;6.72;;;;;;;9.95;100.00;100052.03;5096279;28;20100;-73
2022/09/26 04:11:11;;;;;;;4.78;4.28;;;;;;;9.97;100.00;100051.03;5096226;28;20074;-71
2022/09/26 04:13:37;;;;;;;4.88;4.47;;;;;;;10.02;100.00;100046.97;5096127;28;20118;-70
2022/09/26 04:16:04;;;;;;;5.47;4.03;;;;;;;10.00;100.00;100048.09;5114513;28;20051;-70
2022/09/26 04:18:31;;;;;;;5.97;4.90;;;;;;;10.00;100.00;100048.94;5114491;28;20114;-70
2022/09/26 04:21:09;;;;;;;4.80;4.35;;;;;;;10.01;100.00;100042.56;5095775;28;20042;-72
2022/09/26 04:23:37;;;;;;;6.20;4.47;;;;;;;9.94;100.00;100050.34;5114513;28;20106;-72
2022/09/26 04:26:18;;;;;;;6.28;5.68;;;;;;;9.94;100.00;100044.13;5114554;28;20024;-70
2022/09/26 04:28:44;;;;;;;5.13;4.57;;;;;;;10.02;100.00;100040.75;5114796;28;20073;-70
2022/09/26 04:31:11;;;;;;;7.47;4.60;;;;;;;9.91;100.00;100045.25;5114010;28;20027;-72
2022/09/26 04:33:38;;;;;;;6.50;4.28;;;;;;;9.90;100.00;100046.19;5113913;28;20157;-70
2022/09/26 04:36:08;;;;;;;4.63;4.05;;;;;;;9.94;100.00;100039.59;5114328;28;20545;-71
2022/09/26 04:38:33;;;;;;;5.53;4.63;;;;;;;10.01;100.00;100033.66;5095698;28;20069;-73
2022/09/26 04:41:07;;;;;;;5.88;4.75;;;;;;;10.02;100.00;100035.38;5114040;28;20043;-72
2022/09/26 04:43:33;;;;;;;7.65;4.60;;;;;;;10.04;100.00;100034.25;5113940;28;20490;-71
2022/09/26 04:46:00;;;;;;;5.05;4.25;;;;;;;10.06;100.00;100036.78;5114719;28;20035;-71
2022/09/26 04:48:26;;;;;;;5.65;4.25;;;;;;;10.08;100.00;100029.47;5114178;28;20059;-70
2022/09/26 04:50:52;;;;;;;9.15;4.80;;;;;;;10.11;100.00;100034.56;5113924;28;20047;-71
2022/09/26 04:53:18;;;;;;;8.27;4.72;;;;;;;10.06;100.00;100028.72;5095428;28;20394;-71
2022/09/26 04:55:47;;;;;;;5.47;4.97;;;;;;;9.93;100.00;100027.16;5113480;28;20023;-72
2022/09/26 04:58:14;;;;;;;5.50;5.00;;;;;;;9.92;100.00;100035.34;5102793;28;20055;-71
2022/09/26 05:00:46;;;;;;;5.75;5.00;;;;;;;9.91;100.00;100034.50;5127190;28;20031;-73
2022/09/26 05:03:12;;;;;;;4.95;4.45;;;;;;;10.03;100.00;100027.16;5098655;28;20030;-71
2022/09/26 05:05:46;;;;;;;7.80;5.30;;;;;;;10.06;100.00;100021.53;5095454;28;20451;-72
2022/09/26 05:08:13;;;;;;;8.30;5.30;;;;;;;10.04;100.00;100017.28;5094796;28;20027;-73
2022/09/26 05:10:40;;;;;;;8.05;5.18;;;;;;;10.03;100.00;100007.53;5113721;28;20066;-71
2022/09/26 05:13:06;;;;;;;7.25;6.05;;;;;;;10.03;100.00;100004.84;5095644;28;20118;-72
2022/09/26 05:15:38;;;;;;;7.40;5.20;;;;;;;10.02;100.00;100000.47;5113562;28;20031;-71
2022/09/26 05:18:10;;;;;;;6.45;5.53;;;;;;;10.07;100.00;99995.50;5113695;28;20088;-71
2022/09/26 05:20:37;;;;;;;9.05;5.65;;;;;;;10.04;100.00;99995.78;5112399;28;20545;-72
2022/09/26 05:23:05;;;;;;;7.18;4.70;;;;;;;10.06;100.00;99994.66;5112950;28;20100;-72
2022/09/26 05:28:41;;;;;;;5.63;5.05;;;;;;;10.12;100.00;100001.34;5029555;28;20628;-71
2022/09/26 05:31:07;;;;;;;6.20;5.60;;;;;;;10.19;100.00;100007.84;5029760;28;20029;-73
2022/09/26 05:33:37;;;;;;;8.18;5.07;;;;;;;10.22;100.00;99994.16;5067936;28;20431;-72
2022/09/26 05:36:04;;;;;;;6.70;5.30;;;;;;;10.36;100.00;99991.06;5111940;28;20035;-73
2022/09/26 05:38:30;;;;;;;6.63;5.13;;;;;;;10.41;100.00;99994.22;5112962;28;20032;-72
2022/09/26 05:40:55;;;;;;;9.57;6.15;;;;;;;10.45;100.00;99995.63;5093686;28;20034;-72
2022/09/26 05:43:26;;;;;;;7.35;5.70;;;;;;;10.50;100.00;99996.03;5093273;28;20050;-72
2022/09/26 05:45:59;;;;;;;7.88;6.15;;;;;;;10.52;100.00;99994.06;5112128;28;20034;-74
2022/09/26 05:48:26;;;;;;;7.28;5.43;;;;;;;10.64;100.00;99986.72;5093898;28;20027;-75
2022/09/26 05:50:52;;;;;;;9.82;6.30;;;;;;;10.71;99.90;99989.66;5112176;28;20522;-71
2022/09/26 05:53:18;;;;;;;10.80;5.20;;;;;;;10.82;99.31;99986.84;5111602;28;20039;-72
2022/09/26 05:55:49;;;;;;;7.32;5.13;;;;;;;10.90;97.76;99969.97;5111208;28;20500;-73
2022/09/26 05:58:14;;;;;;;7.63;6.10;;;;;;;10.98;97.31;99976.34;5093506;28;20526;-72
2022/09/26 06:00:40;;;;;;;7.28;6.53;;;;;;;10.98;98.21;99970.97;5111124;28;20024;-71
2022/09/26 06:03:07;;;;;;;10.65;7.63;;;;;;;10.94;97.76;99987.53;5111279;28;20024;-72
2022/09/26 06:05:33;;;;;;;11.15;7.53;;;;;;;10.88;99.44;99993.47;5093039;28;20114;-73
2022/09/26 06:08:00;;;;;;;9.57;7.60;;;;;;;10.94;99.22;100001.00;5110218;28;20495;-72
2022/09/26 06:10:26;;;;;;;9.00;6.22;;;;;;;10.95;97.82;99990.09;5111972;28;20024;-72
2022/09/26 06:12:52;;;;;;;7.88;6.75;;;;;;;11.14;96.54;99981.13;5111348;28;20174;-74
2022/09/26 06:15:18;;;;;;;7.90;6.60;;;;;;;11.21;96.51;99986.75;5092912;28;20036;-71
2022/09/26 06:17:47;;;;;;;8.85;6.05;;;;;;;11.19;96.90;99983.38;5092854;28;20039;-73
2022/09/26 06:20:13;;;;;;;10.07;7.68;;;;;;;11.18;97.79;100000.50;5093408;28;20392;-73
2022/09/26 06:22:40;;;;;;;13.27;8.35;;;;;;;11.17;98.14;100009.56;5093141;28;20028;-71
2022/09/26 06:25:07;;;;;;;10.48;7.80;;;;;;;11.12;98.12;100004.63;5092367;28;20144;-72
2022/09/26 06:27:37;;;;;;;11.30;8.10;;;;;;;11.06;99.03;100016.81;5111649;28;20384;-73
2022/09/26 06:30:07;;;;;;;10.82;6.18;;;;;;;10.99;99.85;100014.84;5111302;28;20065;-73
2022/09/26 06:32:33;;;;;;;10.13;5.25;;;;;;;10.89;98.84;100025.59;5092686;28;20028;-72
2022/09/26 06:34:59;;;;;;;9.60;4.90;;;;;;;10.83;97.25;100020.81;5111513;28;20428;-74
2022/09/26 06:37:24;;;;;;;8.77;6.47;;;;;;;10.79;97.44;100019.41;5092640;28;20144;-73
2022/09/26 06:39:50;;;;;;;13.52;6.53;;;;;;;10.71;97.97;100021.94;5111316;28;20023;-72
2022/09/26 06:42:16;;;;;;;8.15;7.35;;;;;;;10.64;98.16;100010.91;5092872;28;20145;-71
2022/09/26 06:44:43;;;;;;;10.52;8.52;;;;;;;10.60;99.01;100014.03;5092534;28;20376;-69
2022/09/26 06:47:09;;;;;;;19.13;12.40;;;;;;;10.54;100.00;100015.41;5110728;28;20035;-69
2022/09/26 06:49:35;;;;;;;15.18;11.13;;;;;;;10.48;100.00;100014.16;5111051;28;20054;-66
2022/09/26 06:52:01;;;;;;;11.70;10.30;;;;;;;10.49;100.00;100012.31;5071877;28;20384;-68
2022/09/26 06:54:27;;;;;;;15.45;12.00;;;;;;;10.46;100.00;100010.75;5068835;28;20029;-68
2022/09/26 06:56:52;;;;;;;12.43;9.80;;;;;;;10.44;100.00;100012.75;5070394;28;20064;-70
2022/09/26 06:59:18;;;;;;;10.23;8.82;;;;;;;10.44;100.00;100015.44;5069520;28;20120;-71
2022/09/26 07:01:47;;;;;;;13.80;11.23;;;;;;;10.41;100.00;100025.56;5071013;28;20040;-71
2022/09/26 07:04:14;;;;;;;13.70;12.02;;;;;;;10.35;100.00;100021.63;5070818;28;20115;-70
2022/09/26 07:06:41;;;;;;;17.63;13.38;;;;;;;10.30;100.00;100023.03;5070740;28;20044;-71
2022/09/26 07:09:07;;;;;;;18.92;14.23;;;;;;;10.31;100.00;100020.22;5070452;28;20430;-68
2022/09/26 07:11:33;;;;;;;11.93;8.82;;;;;;;10.30;100.00;100007.75;5070463;28;20103;-67
2022/09/26 07:14:00;;;;;;;23.40;16.83;;;;;;;10.29;100.00;100006.06;5070448;28;20393;-61
2022/09/26 07:16:27;;;;;;;11.07;8.60;;;;;;;10.27;100.00;99996.47;5071344;28;20486;-59
2022/09/26 07:18:55;;;;;;;4.72;2.90;;;;;;;10.26;100.00;100005.50;5073959;28;20016;-61
2022/09/26 07:21:20;;;;;;;3.15;1.35;;;;;;;10.23;100.00;99999.41;5073286;28;20031;-61
2022/09/26 07:23:46;;;;;;;0.20;0.20;;;;;;;10.24;100.00;100009.19;5074255;28;20036;-59
2022/09/26 07:26:12;;;;;;;0.38;0.38;;;;;;;10.27;100.00;100008.03;5072664;28;20060;-59
2022/09/26 07:28:37;;;;;;;1.95;0.93;;;;;;;10.28;100.00;100004.38;5073376;28;20098;-61
2022/09/26 07:31:03;;;;;;;0.38;0.32;;;;;;;10.28;100.00;100009.75;5074088;28;20119;-59
2022/09/26 07:33:29;;;;;;;0.08;0.08;;;;;;;10.35;100.00;100010.88;5072756;28;20040;-59
2022/09/26 07:35:56;;;;;;;0.20;0.17;;;;;;;10.37;100.00;99997.28;5073931;28;20188;-60
2022/09/26 07:38:23;;;;;;;0.10;0.10;;;;;;;10.38;100.00;99988.25;5074397;28;20095;-59
2022/09/26 07:40:53;;;;;;;0.10;0.10;;;;;;;10.36;100.00;99988.38;5072717;28;20046;-58
2022/09/26 07:43:20;;;;;;;1.95;0.55;;;;;;;10.33;100.00;99990.50;5074180;28;20570;-59
2022/09/26 07:51:15;;;;;;;0.38;0.10;;;;;;;10.35;100.00;100000.13;5094567;28;20062;-57
2022/09/26 07:53:41;;;;;;;0.82;0.40;;;;;;;10.33;100.00;100004.78;5114148;28;20385;-59
2022/09/26 07:56:10;;;;;;;0.08;0.08;;;;;;;10.32;100.00;100004.94;5115008;28;20043;-58
2022/09/26 07:58:40;;;;;;;1.95;0.70;;;;;;;10.24;100.00;100013.66;5114181;28;20035;-58
2022/09/26 08:01:10;;;;;;;0.03;0.03;;;;;;;10.35;100.00;100016.25;5095718;28;20419;-58
2022/09/26 08:03:44;;;;;;;0.98;0.77;;;;;;;10.50;100.00;100014.84;5114539;28;20036;-59
2022/09/26 08:06:18;;;;;;;0.20;0.20;;;;;;;10.34;100.00;100014.56;5095935;28;20027;-59
2022/09/26 08:08:46;;;;;;;1.03;0.40;;;;;;;10.29;100.00;100005.22;5114231;28;20032;-58
2022/09/26 08:11:17;;;;;;;1.65;0.52;;;;;;;10.31;100.00;100006.78;5114482;28;20792;-58
2022/09/26 08:13:43;;;;;;;0.55;0.55;;;;;;;10.28;100.00;99996.31;5095897;28;20044;-58
2022/09/26 08:16:09;;;;;;;0.20;0.20;;;;;;;10.45;100.00;99995.63;5113900;28;20458;-58
2022/09/26 08:18:35;;;;;;;0.40;0.35;;;;;;;10.54;100.00;99999.28;5095714;28;20035;-59
2022/09/26 08:21:05;;;;;;;0.57;0.57;;;;;;;10.58;100.00;99994.47;5095475;28;20080;-58
2022/09/26 08:23:31;;;;;;;0.55;0.47;;;;;;;10.61;100.00;99994.22;5095516;28;20486;-58
2022/09/26 08:25:58;;;;;;;0.50;0.40;;;;;;;10.76;99.10;99992.81;5095050;28;20032;-59
2022/09/26 08:28:26;;;;;;;0.77;0.77;;;;;;;10.65;98.06;99995.63;5095045;28;20039;-57
2022/09/26 08:30:52;;;;;;;0.32;0.32;;;;;;;10.66;97.85;99997.31;5112785;28;20084;-59
2022/09/26 08:33:19;;;;;;;0.20;0.20;;;;;;;10.79;97.24;99993.34;5095750;28;20039;-59
2022/09/26 08:35:44;;;;;;;0.52;0.50;;;;;;;10.83;96.34;99999.28;5114679;28;20043;-59
2022/09/26 08:38:10;;;;;;;1.10;0.80;;;;;;;10.88;96.58;99985.41;5113777;28;20113;-59
2022/09/26 08:41:16;;;;;;;1.08;0.68;;;;;;;11.02;96.57;99983.13;5095426;28;20069;-60
2022/09/26 08:44:01;;;;;;;0.55;0.52;;;;;;;11.06;96.12;99989.91;5081303;28;20096;-59
2022/09/26 08:49:15;;;;;;;24.65;19.67;;;;;;;11.13;96.40;99980.28;5113072;28;20377;-59
2022/09/26 08:51:46;;;;;;;18.83;14.95;;;;;;;11.21;96.60;99981.38;5094273;28;20044;-60
2022/09/26 08:54:17;;;;;;;13.45;11.68;;;;;;;11.24;96.48;99981.94;5094831;28;20376;-59
2022/09/26 08:56:47;;;;;;;14.13;12.60;;;;;;;11.42;97.09;99979.31;5094445;28;20028;-59
2022/09/26 08:59:38;;;;;;;13.65;11.90;;;;;;;11.55;97.84;99971.78;5094702;28;20122;-61
2022/09/26 09:02:14;;;;;;;16.25;10.70;;;;;;;11.68;97.90;99969.59;5112822;28;20601;-59
2022/09/26 09:04:47;;;;;;;13.45;11.07;;;;;;;11.70;98.12;99972.97;5094885;28;20472;-59
2022/09/26 09:07:21;;;;;;;14.90;12.55;;;;;;;11.83;98.73;99977.22;5112997;28;20031;-59
2022/09/26 09:09:48;;;;;;;15.10;11.17;;;;;;;11.79;99.44;99975.81;5113078;28;20031;-60
2022/09/26 09:12:56;;;;;;;14.90;11.18;;;;;;;11.89;100.00;99969.38;5112899;28;20035;-61
2022/09/26 09:15:32;;;;;;;15.27;10.55;;;;;;;11.86;100.00;99969.69;5094222;28;20028;-65
2022/09/26 09:18:09;;;;;;;14.15;10.88;;;;;;;11.89;100.00;99973.91;5112918;28;20519;-61
2022/09/26 09:20:38;;;;;;;10.02;7.53;;;;;;;11.77;100.00;99967.03;5112178;28;20110;-60
2022/09/26 09:23:12;;;;;;;8.90;7.95;;;;;;;11.68;100.00;99963.38;5110807;28;20023;-61
2022/09/26 09:26:03;;;;;;;9.93;8.50;;;;;;;11.66;100.00;99960.81;5113147;28;20038;-67
2022/09/26 09:29:01;;;;;;;13.25;7.78;;;;;;;11.68;100.00;99972.28;5094086;28;20040;-61
2022/09/26 09:31:31;;;;;;;9.88;7.85;;;;;;;11.57;100.00;99960.84;5112268;28;20374;-61
2022/09/26 09:34:01;;;;;;;9.75;7.90;;;;;;;11.57;100.00;99967.09;5111877;28;20367;-60
2022/09/26 09:36:30;;;;;;;10.02;8.48;;;;;;;11.57;100.00;99964.38;5112149;28;20081;-60
2022/09/26 09:39:01;;;;;;;11.88;8.32;;;;;;;11.63;100.00;99960.28;5093852;28;20023;-63
2022/09/26 09:41:35;;;;;;;10.95;8.70;;;;;;;11.77;100.00;99958.94;5112208;28;20043;-62
2022/09/26 09:44:15;;;;;;;10.73;7.93;;;;;;;11.54;100.00;99951.25;5112344;28;20030;-63
2022/09/26 09:46:42;;;;;;;12.02;8.38;;;;;;;11.75;100.00;99945.59;5112167;28;20144;-62
2022/09/26 09:49:08;;;;;;;10.25;8.23;;;;;;;11.85;100.00;99946.44;5111414;28;20059;-61
2022/09/26 09:51:54;;;;;;;11.07;9.00;;;;;;;11.97;100.00;99936.31;5093614;28;20094;-65
2022/09/26 09:54:34;;;;;;;9.52;7.65;;;;;;;11.95;100.00;99943.69;5111793;28;20054;-64
2022/09/26 09:57:09;;;;;;;8.82;6.65;;;;;;;11.93;100.00;99948.41;5093237;28;20032;-67
2022/09/26 09:59:53;;;;;;;10.68;7.30;;;;;;;11.86;100.00;99944.59;5112862;28;20096;-68
2022/09/26 10:02:42;;;;;;;10.43;7.97;;;;;;;12.03;100.00;99951.84;5112250;28;20063;-68
2022/09/26 10:05:18;;;;;;;13.93;8.93;;;;;;;12.14;100.00;99946.25;5093037;28;20034;-64
2022/09/26 10:07:46;;;;;;;12.73;9.07;;;;;;;12.17;100.00;99945.94;5112210;28;20376;-66
2022/09/26 10:10:19;;;;;;;23.08;20.55;;;;;;;12.18;100.00;99939.56;5111569;28;20129;-68
2022/09/26 10:12:48;;;;;;;14.70;11.60;;;;;;;12.11;100.00;99948.41;5111694;28;20039;-68
2022/09/26 10:15:25;;;;;;;13.82;10.93;;;;;;;12.11;100.00;99949.25;5093296;28;20036;-67
2022/09/26 10:18:16;;;;;;;13.85;10.32;;;;;;;12.03;100.00;99935.69;5111409;28;20031;-69
2022/09/26 10:20:54;;;;;;;12.02;8.63;;;;;;;12.04;100.00;99930.16;5111378;28;20476;-68
2022/09/26 10:23:38;;;;;;;11.20;10.00;;;;;;;12.10;100.00;99942.19;5111304;28;20439;-70
2022/09/26 10:26:08;;;;;;;11.95;9.77;;;;;;;12.10;100.00;99931.41;5093716;28;20307;-68
2022/09/26 10:28:55;;;;;;;10.15;8.30;;;;;;;12.02;100.00;99937.53;5111973;28;20511;-67
2022/09/26 10:31:34;;;;;;;7.68;6.40;;;;;;;12.06;100.00;99935.38;5110744;28;20431;-67
2022/09/26 10:34:23;;;;;;;6.25;5.65;;;;;;;12.14;100.00;99937.34;5110419;28;20031;-67
2022/09/26 10:36:48;;;;;;;9.75;8.82;;;;;;;12.11;100.00;99933.09;5112086;28;20519;-68
2022/09/26 10:42:00;;;;;;;19.00;11.88;;;;;;;11.99;100.00;99928.91;5111462;28;20043;-71
2022/09/26 10:44:35;;;;;;;9.25;8.35;;;;;;;11.81;100.00;99925.34;5092603;28;20166;-68
2022/09/26 10:47:07;;;;;;;9.93;8.93;;;;;;;11.94;100.00;99920.47;5111640;28;20103;-71
2022/09/26 10:49:49;;;;;;;12.90;9.55;;;;;;;11.87;100.00;99919.34;5111379;28;20031;-71
2022/09/26 10:52:37;;;;;;;16.08;11.40;;;;;;;11.84;100.00;99919.66;5111224;28;20055;-68
2022/09/26 10:55:06;;;;;;;15.48;10.73;;;;;;;12.10;100.00;99915.25;5114907;28;20031;-70
2022/09/26 10:57:39;;;;;;;13.13;9.70;;;;;;;12.01;100.00;99911.59;5115510;28;20038;-70
2022/09/26 11:00:07;;;;;;;11.25;7.82;;;;;;;12.06;100.00;99913.81;5096484;28;20031;-71
2022/09/26 11:02:35;;;;;;;9.20;8.30;;;;;;;11.99;100.00;99912.75;5115182;28;20067;-72
2022/09/26 11:07:51;;;;;;;9.57;6.78;;;;;;;11.98;100.00;99911.06;5115985;28;20042;-72
2022/09/26 11:10:33;;;;;;;9.30;7.53;;;;;;;12.00;100.00;99911.75;5115296;28;20035;-71
2022/09/26 11:13:15;;;;;;;5.22;4.43;;;;;;;11.57;100.00;99898.94;5114627;28;20118;-73
2022/09/26 11:16:07;;;;;;;6.75;5.88;;;;;;;11.79;100.00;99903.13;5115451;28;20020;-73
2022/09/26 11:19:11;;;;;;;5.97;5.45;;;;;;;11.72;100.00;99900.97;5096787;28;20059;-71
2022/09/26 11:21:50;;;;;;;10.80;7.05;;;;;;;11.79;100.00;99905.81;5115642;28;20046;-71
2022/09/26 11:24:24;;;;;;;9.00;7.25;;;;;;;11.84;100.00;99898.13;5096876;28;20034;-73
2022/09/26 11:27:04;;;;;;;7.80;6.00;;;;;;;11.70;100.00;99891.34;5096897;28;20031;-71
2022/09/26 11:29:54;;;;;;;6.93;6.22;;;;;;;11.90;100.00;99889.41;5096827;28;20046;-73
2022/09/26 11:32:44;;;;;;;8.02;6.68;;;;;;;11.97;100.00;99888.66;5097033;28;20032;-72
2022/09/26 11:35:16;;;;;;;6.38;4.68;;;;;;;11.88;100.00;99888.72;5096383;28;20135;-72
2022/09/26 11:38:21;;;;;;;8.63;4.63;;;;;;;11.82;100.00;99883.97;5114557;28;20396;-72
2022/09/26 11:41:02;;;;;;;7.93;5.03;;;;;;;11.84;100.00;99881.97;5096719;28;20036;-71
2022/09/26 11:43:58;;;;;;;7.47;5.10;;;;;;;11.93;100.00;99879.22;5096600;28;20031;-71
2022/09/26 11:46:33;;;;;;;5.32;4.80;;;;;;;11.87;100.00;99876.25;5096692;28;20023;-72
2022/09/26 11:49:02;;;;;;;;;;;;;;;11.88;100.00;99884.19;5096787;28;20024;-72
2022/09/26 11:51:48;;;;;;;5.50;4.80;;;;;;;11.83;100.00;99870.34;5096362;28;20311;-71
2022/09/26 11:54:32;;;;;;;6.85;4.63;;;;;;;11.81;100.00;99874.19;5096770;28;20039;-71
2022/09/26 11:57:07;;;;;;;6.82;5.07;;;;;;;11.92;100.00;99868.56;5096174;28;20034;-73
2022/09/26 12:00:01;;;;;;;5.90;5.20;;;;;;;11.94;100.00;99871.97;5115640;28;20034;-71